Time;durP1;ratioP1;P1;durP2;ratioP2;P2;SDS_P1;SDS_P2;PMS_P1;PMS_P2;Temp;Humidity;BMP_temperature;BMP_pressure;BME280_temperature;BME280_humidity;BME280_pressure;Samples;Min_cycle;Max_cycle;Signal;HPM_P1;HPM_P2
2023/10/16 00:00:30;;;;;;;1.30;1.20;;;12.40;92.00;;;;;;5043991;28;20222;-74
2023/10/16 00:02:59;;;;;;;1.15;1.15;;;12.40;92.30;;;;;;5048058;28;20238;-72
2023/10/16 00:05:28;;;;;;;1.40;1.30;;;12.30;92.60;;;;;;5047232;28;20204;-72
2023/10/16 00:07:56;;;;;;;1.50;1.30;;;12.30;92.60;;;;;;5045151;28;20194;-72
2023/10/16 00:10:24;;;;;;;1.20;1.20;;;12.30;92.90;;;;;;5041821;28;20226;-73
2023/10/16 00:12:52;;;;;;;1.40;1.30;;;12.20;92.90;;;;;;5045645;28;20281;-73
2023/10/16 00:15:21;;;;;;;1.50;1.40;;;12.10;93.10;;;;;;5049515;28;20268;-72
2023/10/16 00:17:49;;;;;;;1.20;1.20;;;12.10;93.30;;;;;;5043878;28;20195;-73
2023/10/16 00:20:19;;;;;;;1.42;1.33;;;12.10;93.40;;;;;;5042343;28;20273;-72
2023/10/16 00:22:45;;;;;;;1.40;1.30;;;12.00;93.30;;;;;;5048272;28;20205;-73
2023/10/16 00:25:15;;;;;;;1.30;1.20;;;12.00;93.30;;;;;;5044883;28;20206;-73
2023/10/16 00:27:42;;;;;;;1.17;1.17;;;11.90;93.80;;;;;;5045725;28;20277;-74
2023/10/16 00:30:10;;;;;;;1.20;1.20;;;11.90;93.80;;;;;;5044946;28;20812;-72
2023/10/16 00:32:38;;;;;;;1.40;1.30;;;11.80;94.00;;;;;;5042429;28;20685;-72
2023/10/16 00:35:08;;;;;;;1.30;1.20;;;11.70;94.40;;;;;;5062076;28;20190;-73
2023/10/16 00:37:35;;;;;;;1.20;1.20;;;11.70;94.60;;;;;;5062020;28;20274;-72
2023/10/16 00:40:10;;;;;;;1.30;1.20;;;11.60;94.60;;;;;;5042141;28;20229;-71
2023/10/16 00:42:43;;;;;;;1.50;1.40;;;11.60;95.00;;;;;;5042815;28;20683;-72
2023/10/16 00:45:10;;;;;;;1.67;1.58;;;11.60;95.30;;;;;;5046789;28;20269;-73
2023/10/16 00:47:39;;;;;;;1.35;1.25;;;11.50;95.60;;;;;;5044121;28;20206;-72
2023/10/16 00:50:12;;;;;;;1.63;1.52;;;11.50;95.50;;;;;;5044852;28;20219;-72
2023/10/16 00:52:42;;;;;;;1.27;1.20;;;11.50;95.70;;;;;;5044391;28;20205;-72
2023/10/16 00:55:11;;;;;;;1.67;1.58;;;11.40;95.90;;;;;;5046060;28;20693;-72
2023/10/16 00:57:39;;;;;;;1.40;1.30;;;11.40;96.10;;;;;;5044446;28;20209;-72
2023/10/16 01:00:12;;;;;;;1.40;1.30;;;11.40;96.30;;;;;;5046041;28;20903;-72
2023/10/16 01:02:40;;;;;;;1.20;1.20;;;11.40;96.40;;;;;;5039535;28;20198;-74
2023/10/16 01:05:08;;;;;;;1.30;1.30;;;11.40;96.50;;;;;;5040930;28;20231;-72
2023/10/16 01:07:36;;;;;;;1.35;1.30;;;11.40;96.20;;;;;;5042447;28;20204;-72
2023/10/16 01:10:10;;;;;;;1.27;1.27;;;11.30;96.20;;;;;;5046765;28;20223;-75
2023/10/16 01:12:37;;;;;;;1.58;1.48;;;11.30;96.50;;;;;;5037555;28;20223;-72
2023/10/16 01:15:07;;;;;;;1.30;1.30;;;11.30;96.60;;;;;;5044932;28;20250;-72
2023/10/16 01:17:34;;;;;;;1.30;1.30;;;11.30;96.70;;;;;;5047105;28;20211;-72
2023/10/16 01:20:03;;;;;;;1.50;1.40;;;11.30;96.90;;;;;;5042265;28;20191;-73
2023/10/16 01:22:34;;;;;;;1.50;1.40;;;11.30;97.20;;;;;;5039985;28;20226;-72
2023/10/16 01:25:08;;;;;;;1.30;1.20;;;11.30;97.10;;;;;;5046584;28;20203;-73
2023/10/16 01:27:38;;;;;;;1.10;1.10;;;11.30;97.30;;;;;;5044033;28;20199;-72
2023/10/16 01:30:06;;;;;;;1.52;1.30;;;11.20;97.20;;;;;;5049626;28;20689;-74
2023/10/16 01:32:34;;;;;;;1.35;1.30;;;11.20;97.30;;;;;;5046648;28;20260;-72
2023/10/16 01:35:01;;;;;;;1.13;1.13;;;11.20;97.60;;;;;;5047321;28;20277;-72
2023/10/16 01:37:29;;;;;;;1.30;1.30;;;11.20;97.80;;;;;;5051357;28;20739;-72
2023/10/16 01:40:12;;;;;;;1.35;1.30;;;11.20;97.80;;;;;;5045786;28;20242;-72
2023/10/16 01:42:41;;;;;;;1.63;1.52;;;11.20;97.60;;;;;;5042417;28;20254;-72
2023/10/16 01:45:11;;;;;;;1.20;1.20;;;11.20;97.60;;;;;;5041467;28;20229;-72
2023/10/16 01:47:39;;;;;;;1.20;1.20;;;11.20;97.70;;;;;;5044013;28;20206;-74
2023/10/16 01:50:12;;;;;;;1.30;1.30;;;11.10;97.70;;;;;;5049180;28;20222;-72
2023/10/16 01:52:40;;;;;;;1.80;1.70;;;11.10;97.80;;;;;;5043058;28;20203;-72
2023/10/16 01:55:15;;;;;;;1.45;1.35;;;11.10;97.80;;;;;;5051605;28;20198;-72
2023/10/16 01:57:44;;;;;;;1.20;1.20;;;11.00;98.20;;;;;;5043332;28;20223;-72
2023/10/16 02:00:16;;;;;;;1.23;1.23;;;11.00;98.30;;;;;;5045768;28;20222;-72
2023/10/16 02:02:43;;;;;;;1.60;1.50;;;11.00;98.20;;;;;;5041630;28;20702;-71
2023/10/16 02:05:14;;;;;;;1.60;1.50;;;11.00;98.40;;;;;;5045566;28;20297;-72
2023/10/16 02:07:43;;;;;;;1.50;1.40;;;10.90;98.50;;;;;;5046312;28;20226;-73
2023/10/16 02:10:13;;;;;;;1.40;1.30;;;10.90;98.60;;;;;;5046214;28;20226;-72
2023/10/16 02:12:40;;;;;;;1.52;1.42;;;10.80;98.80;;;;;;5044777;28;20221;-72
2023/10/16 02:15:09;;;;;;;1.30;1.20;;;10.80;99.00;;;;;;5050906;28;20203;-73
2023/10/16 02:17:39;;;;;;;1.35;1.35;;;10.70;99.00;;;;;;5043175;28;20198;-72
2023/10/16 02:20:11;;;;;;;1.50;1.40;;;10.70;99.30;;;;;;5045909;28;20214;-73
2023/10/16 02:22:40;;;;;;;1.50;1.40;;;10.70;99.40;;;;;;5044130;28;20205;-72
2023/10/16 02:25:10;;;;;;;1.70;1.60;;;10.70;99.40;;;;;;5045836;28;20332;-72
2023/10/16 02:27:37;;;;;;;1.75;1.65;;;10.60;99.70;;;;;;5043121;28;20224;-73
2023/10/16 02:30:28;;;;;;;1.77;1.60;;;10.60;99.80;;;;;;5044997;28;20195;-76
2023/10/16 02:33:11;;;;;;;1.67;1.58;;;10.60;99.70;;;;;;5047280;28;20225;-72
2023/10/16 02:35:42;;;;;;;1.40;1.30;;;10.50;99.80;;;;;;5055652;28;20179;-74
2023/10/16 02:38:12;;;;;;;1.70;1.60;;;10.50;99.90;;;;;;5058217;28;20231;-72
2023/10/16 02:40:41;;;;;;;1.42;1.40;;;10.50;99.90;;;;;;5049866;28;20344;-76
2023/10/16 02:43:13;;;;;;;1.50;1.40;;;10.40;99.90;;;;;;5064304;28;20203;-75
2023/10/16 02:45:42;;;;;;;1.50;1.40;;;10.30;99.90;;;;;;5059162;28;20248;-73
2023/10/16 02:48:11;;;;;;;1.70;1.60;;;10.30;99.90;;;;;;5046742;28;20716;-72
2023/10/16 02:50:41;;;;;;;1.50;1.40;;;10.20;99.90;;;;;;5047890;28;20218;-74
2023/10/16 02:53:08;;;;;;;1.50;1.40;;;10.20;99.90;;;;;;5050755;28;20202;-73
2023/10/16 02:55:35;;;;;;;1.42;1.42;;;10.20;99.90;;;;;;5045537;28;20206;-73
2023/10/16 02:58:04;;;;;;;1.65;1.55;;;10.20;99.90;;;;;;5050656;28;20432;-71
2023/10/16 03:00:37;;;;;;;1.80;1.70;;;10.20;99.90;;;;;;5049650;28;20219;-73
2023/10/16 03:03:05;;;;;;;1.60;1.50;;;10.10;99.90;;;;;;5047892;28;20203;-73
2023/10/16 03:05:34;;;;;;;1.40;1.40;;;10.10;99.90;;;;;;5044432;28;20203;-73
2023/10/16 03:08:02;;;;;;;1.80;1.70;;;10.10;99.90;;;;;;5049345;28;20577;-75
2023/10/16 03:10:31;;;;;;;1.75;1.65;;;10.10;99.90;;;;;;5046183;28;20777;-73
2023/10/16 03:13:05;;;;;;;1.50;1.48;;;10.10;99.90;;;;;;5047575;28;20219;-73
2023/10/16 03:15:38;;;;;;;1.60;1.50;;;10.10;99.90;;;;;;5043858;28;20880;-73
2023/10/16 03:18:10;;;;;;;1.55;1.45;;;10.10;99.90;;;;;;5049526;28;20199;-73
2023/10/16 03:20:38;;;;;;;1.50;1.40;;;10.00;99.90;;;;;;5046821;28;20221;-77
2023/10/16 03:23:07;;;;;;;1.70;1.60;;;10.00;99.90;;;;;;5050618;28;20199;-73
2023/10/16 03:28:17;;;;;;;1.83;1.73;;;10.00;99.90;;;;;;5054064;28;20259;-73
2023/10/16 03:30:44;;;;;;;1.63;1.52;;;10.00;99.90;;;;;;5046777;28;20317;-74
2023/10/16 03:33:14;;;;;;;1.67;1.58;;;9.90;99.90;;;;;;5045403;28;20214;-74
2023/10/16 03:35:45;;;;;;;1.67;1.58;;;9.90;99.90;;;;;;5042010;28;20226;-74
2023/10/16 03:38:12;;;;;;;1.55;1.52;;;9.90;99.90;;;;;;5045895;28;20565;-73
2023/10/16 03:40:41;;;;;;;1.60;1.60;;;9.90;99.90;;;;;;5049037;28;20310;-73
2023/10/16 03:43:08;;;;;;;1.70;1.60;;;9.90;99.90;;;;;;5046269;28;20732;-72
2023/10/16 03:45:40;;;;;;;1.70;1.60;;;9.80;99.90;;;;;;5043229;28;20261;-78
2023/10/16 03:48:10;;;;;;;1.60;1.50;;;9.80;99.90;;;;;;5048240;28;20243;-73
2023/10/16 03:50:39;;;;;;;1.60;1.50;;;9.70;99.90;;;;;;5047575;28;20284;-78
2023/10/16 03:53:08;;;;;;;1.60;1.50;;;9.70;99.90;;;;;;5045566;28;20214;-75
2023/10/16 03:55:46;;;;;;;1.50;1.40;;;9.70;99.90;;;;;;5045864;28;20222;-73
2023/10/16 03:58:14;;;;;;;1.58;1.48;;;9.70;99.90;;;;;;5043538;28;20294;-77
2023/10/16 04:03:26;;;;;;;1.40;1.40;;;9.60;99.90;;;;;;5048725;28;20198;-79
2023/10/16 04:05:54;;;;;;;1.50;1.50;;;9.60;99.90;;;;;;5046921;28;20289;-78
2023/10/16 04:08:23;;;;;;;1.50;1.50;;;9.60;99.90;;;;;;5042635;28;20210;-75
2023/10/16 04:10:53;;;;;;;1.90;1.80;;;9.60;99.90;;;;;;5043650;28;20215;-74
2023/10/16 04:13:25;;;;;;;1.60;1.50;;;9.60;99.90;;;;;;5047169;28;20233;-78
2023/10/16 04:16:13;;;;;;;1.70;1.60;;;9.50;99.90;;;;;;5043357;28;20686;-75
2023/10/16 04:18:40;;;;;;;1.65;1.58;;;9.50;99.90;;;;;;5040636;28;20207;-78
2023/10/16 04:23:53;;;;;;;1.90;1.80;;;9.50;99.90;;;;;;5040800;28;20269;-79
2023/10/16 04:26:34;;;;;;;1.83;1.73;;;9.50;99.90;;;;;;5047424;28;20195;-75
2023/10/16 04:31:55;;;;;;;1.70;1.60;;;9.40;99.90;;;;;;5043830;28;20237;-78
2023/10/16 04:34:31;;;;;;;1.73;1.63;;;9.40;99.90;;;;;;5050206;28;20197;-74
2023/10/16 04:48:06;;;;;;;1.60;1.50;;;9.20;99.90;;;;;;5037629;28;20199;-73
2023/10/16 04:50:37;;;;;;;1.77;1.67;;;9.20;99.90;;;;;;5042794;28;20218;-70
2023/10/16 04:53:08;;;;;;;1.85;1.75;;;9.20;99.90;;;;;;5045105;28;20207;-72
2023/10/16 04:55:53;;;;;;;1.65;1.55;;;9.20;99.90;;;;;;5045184;28;20202;-71
2023/10/16 04:58:39;;;;;;;1.90;1.80;;;9.20;99.90;;;;;;5046894;28;20203;-71
2023/10/16 05:06:49;;;;;;;1.73;1.63;;;9.10;99.90;;;;;;5034218;28;20253;-73
2023/10/16 06:15:21;;;;;;;2.13;2.03;;;9.40;99.90;;;;;;5038463;28;20975;-75
2023/10/16 06:17:51;;;;;;;1.80;1.70;;;9.40;99.90;;;;;;5040053;28;20210;-76
2023/10/16 06:20:21;;;;;;;2.47;1.80;;;9.50;99.90;;;;;;5036465;28;20302;-76
2023/10/16 06:22:51;;;;;;;1.80;1.70;;;9.50;99.90;;;;;;5036798;28;20199;-75
2023/10/16 06:25:19;;;;;;;2.03;1.92;;;9.50;99.90;;;;;;5040649;28;20328;-77
2023/10/16 06:27:47;;;;;;;2.10;2.00;;;9.60;99.90;;;;;;5035597;28;21316;-77
2023/10/16 06:30:18;;;;;;;1.80;1.70;;;9.60;99.90;;;;;;5040928;28;20279;-76
2023/10/16 06:32:49;;;;;;;1.90;1.80;;;9.60;99.90;;;;;;5046341;28;20314;-77
2023/10/16 06:35:18;;;;;;;2.00;1.90;;;9.70;99.90;;;;;;5068375;28;20195;-76
2023/10/16 06:37:51;;;;;;;1.98;1.85;;;9.70;99.90;;;;;;5045218;28;20654;-75
2023/10/16 06:40:24;;;;;;;2.00;1.90;;;9.80;99.90;;;;;;5044695;28;20226;-79
2023/10/16 06:42:54;;;;;;;1.90;1.80;;;9.90;99.90;;;;;;5041877;28;20225;-73
2023/10/16 06:45:40;;;;;;;2.13;2.00;;;9.90;99.90;;;;;;5042567;28;20202;-77
2023/10/16 06:48:10;;;;;;;1.80;1.70;;;9.90;99.90;;;;;;5050111;28;20209;-75
2023/10/16 06:50:44;;;;;;;1.80;1.70;;;10.00;99.90;;;;;;5043739;28;20211;-74
2023/10/16 06:53:11;;;;;;;1.83;1.73;;;10.10;99.90;;;;;;5040433;28;20226;-74
2023/10/16 06:55:38;;;;;;;1.42;1.42;;;10.20;99.90;;;;;;5044220;28;20237;-77
2023/10/16 06:58:06;;;;;;;1.70;1.60;;;10.30;99.90;;;;;;5043771;28;20216;-76
2023/10/16 07:00:33;;;;;;;1.63;1.58;;;10.40;99.90;;;;;;5038002;28;20325;-72
2023/10/16 07:03:09;;;;;;;1.90;1.80;;;10.50;99.90;;;;;;5047752;28;20314;-76
2023/10/16 07:05:43;;;;;;;2.10;1.92;;;10.50;99.90;;;;;;5043554;28;20206;-74
2023/10/16 07:08:11;;;;;;;2.00;1.90;;;10.60;99.90;;;;;;5043643;28;20198;-76
2023/10/16 07:10:42;;;;;;;1.70;1.60;;;10.60;99.90;;;;;;5044917;28;20218;-72
2023/10/16 07:13:09;;;;;;;1.95;1.85;;;10.50;99.90;;;;;;5044142;28;20231;-76
2023/10/16 07:15:36;;;;;;;1.85;1.75;;;10.40;99.90;;;;;;5038057;28;20248;-73
2023/10/16 07:18:04;;;;;;;1.73;1.63;;;10.40;99.90;;;;;;5042307;28;20234;-77
2023/10/16 07:20:33;;;;;;;2.30;2.10;;;10.40;99.90;;;;;;5043540;28;20312;-75
2023/10/16 07:23:10;;;;;;;1.60;1.50;;;10.40;99.90;;;;;;5036562;28;20234;-75
2023/10/16 07:25:54;;;;;;;2.08;1.88;;;10.50;99.90;;;;;;5037293;28;20202;-74
2023/10/16 07:28:21;;;;;;;2.25;1.75;;;10.60;99.90;;;;;;5044009;28;20249;-74
2023/10/16 07:30:48;;;;;;;1.83;1.73;;;10.70;99.90;;;;;;5038866;28;20640;-76
2023/10/16 07:33:16;;;;;;;1.80;1.70;;;10.80;99.90;;;;;;5039577;28;20238;-74
2023/10/16 07:35:44;;;;;;;2.15;1.95;;;11.00;99.90;;;;;;5044747;28;20207;-78
2023/10/16 07:38:13;;;;;;;1.70;1.60;;;11.00;99.90;;;;;;5042633;28;20207;-75
2023/10/16 07:40:40;;;;;;;2.63;1.70;;;11.10;99.90;;;;;;5040632;28;20826;-73
2023/10/16 07:43:07;;;;;;;2.38;2.17;;;11.30;99.90;;;;;;5043843;28;20199;-76
2023/10/16 07:45:34;;;;;;;1.90;1.80;;;11.50;99.90;;;;;;5045306;28;20199;-75
2023/10/16 07:48:07;;;;;;;1.60;1.50;;;11.60;99.90;;;;;;5038547;28;20230;-77
2023/10/16 07:50:38;;;;;;;2.58;1.70;;;11.80;99.90;;;;;;5043426;28;20215;-75
2023/10/16 07:53:07;;;;;;;1.75;1.60;;;11.90;99.90;;;;;;5040836;28;20920;-72
2023/10/16 07:55:42;;;;;;;2.63;1.90;;;12.10;99.90;;;;;;5041090;28;20281;-74
2023/10/16 07:58:16;;;;;;;1.85;1.73;;;12.20;99.90;;;;;;5044700;28;20206;-73
2023/10/16 08:00:56;;;;;;;1.83;1.73;;;12.20;99.90;;;;;;5039172;28;20232;-75
2023/10/16 08:03:23;;;;;;;1.90;1.77;;;12.30;99.90;;;;;;5037896;28;20285;-76
2023/10/16 08:05:50;;;;;;;1.70;1.60;;;12.30;99.90;;;;;;5038108;28;20709;-73
2023/10/16 08:08:25;;;;;;;1.63;1.52;;;12.70;99.90;;;;;;5046194;28;20878;-73
2023/10/16 08:10:53;;;;;;;2.13;1.90;;;13.10;99.90;;;;;;5042841;28;20301;-71
2023/10/16 08:13:24;;;;;;;1.48;1.42;;;13.40;99.90;;;;;;5039569;28;20236;-72
2023/10/16 08:15:51;;;;;;;1.73;1.60;;;13.80;99.90;;;;;;5032407;28;20282;-71
2023/10/16 08:18:19;;;;;;;2.67;1.50;;;14.10;99.90;;;;;;5030974;28;20277;-71
2023/10/16 08:21:05;;;;;;;4.25;1.73;;;14.30;99.90;;;;;;5027357;28;20223;-72
2023/10/16 08:23:35;;;;;;;1.77;1.60;;;14.40;99.90;;;;;;5028020;28;20195;-74
2023/10/16 08:26:14;;;;;;;1.63;1.52;;;14.40;99.90;;;;;;5034943;28;20215;-76
2023/10/16 08:28:45;;;;;;;3.05;1.85;;;14.10;99.90;;;;;;5035041;28;20198;-75
2023/10/16 08:31:23;;;;;;;1.77;1.67;;;14.20;99.90;;;;;;5040032;28;20226;-78
2023/10/16 08:33:51;;;;;;;1.85;1.70;;;14.40;99.90;;;;;;5050438;28;20175;-76
2023/10/16 08:36:21;;;;;;;2.10;1.77;;;14.60;99.90;;;;;;5055100;28;20213;-76
2023/10/16 08:38:53;;;;;;;3.30;1.40;;;14.50;99.90;;;;;;5042533;28;20640;-75
2023/10/16 08:41:32;;;;;;;1.60;1.50;;;14.50;99.90;;;;;;5034707;28;20340;-77
2023/10/16 08:44:05;;;;;;;2.03;1.73;;;14.50;99.90;;;;;;5046978;28;20230;-76
2023/10/16 08:46:34;;;;;;;1.85;1.70;;;14.30;99.90;;;;;;5059967;28;20210;-77
2023/10/16 08:49:03;;;;;;;2.15;1.60;;;14.30;99.90;;;;;;5056435;28;20207;-76
2023/10/16 08:51:31;;;;;;;1.33;1.23;;;14.40;99.90;;;;;;5033646;28;20309;-75
2023/10/16 08:54:02;;;;;;;1.50;1.40;;;14.40;99.90;;;;;;5038537;28;20260;-77
2023/10/16 08:56:31;;;;;;;1.50;1.40;;;14.30;99.90;;;;;;5037010;28;20693;-74
2023/10/16 08:59:01;;;;;;;1.42;1.30;;;14.20;99.90;;;;;;5032446;28;20675;-77
2023/10/16 09:01:32;;;;;;;2.00;1.80;;;14.20;99.90;;;;;;5043612;28;20213;-75
2023/10/16 09:04:05;;;;;;;1.48;1.38;;;14.20;99.90;;;;;;5036062;28;20214;-75
2023/10/16 09:06:37;;;;;;;2.05;1.88;;;14.20;99.90;;;;;;5039305;28;20274;-77
2023/10/16 09:09:12;;;;;;;3.53;1.80;;;14.30;99.90;;;;;;5040699;28;20286;-74
2023/10/16 09:11:40;;;;;;;1.50;1.40;;;14.40;99.90;;;;;;5039892;28;20221;-76
2023/10/16 09:14:08;;;;;;;1.73;1.60;;;14.50;99.90;;;;;;5032632;28;20295;-75
2023/10/16 09:16:36;;;;;;;1.88;1.77;;;14.50;99.90;;;;;;5038660;28;20575;-77
2023/10/16 09:19:07;;;;;;;1.80;1.60;;;14.50;99.90;;;;;;5036652;28;20206;-74
2023/10/16 09:21:38;;;;;;;1.60;1.50;;;14.50;99.90;;;;;;5037258;28;20285;-74
2023/10/16 09:24:07;;;;;;;1.50;1.40;;;14.50;99.90;;;;;;5039926;28;20211;-73
2023/10/16 09:26:38;;;;;;;1.40;1.30;;;14.50;99.90;;;;;;5042578;28;20202;-76
2023/10/16 09:29:14;;;;;;;1.42;1.33;;;14.60;99.90;;;;;;5043570;28;20207;-76
2023/10/16 09:31:44;;;;;;;1.88;1.70;;;14.70;99.90;;;;;;5040234;28;20214;-70
2023/10/16 09:34:17;;;;;;;2.50;1.50;;;14.70;99.90;;;;;;5034852;28;20286;-70
2023/10/16 09:36:48;;;;;;;8.95;1.65;;;14.60;99.90;;;;;;5035739;28;20298;-72
2023/10/16 09:39:18;;;;;;;1.70;1.60;;;14.60;99.90;;;;;;5033665;28;20215;-71
2023/10/16 09:41:49;;;;;;;1.92;1.38;;;14.70;99.90;;;;;;5037120;28;20536;-70
2023/10/16 09:44:23;;;;;;;1.48;1.38;;;14.80;99.90;;;;;;5039256;28;20199;-72
2023/10/16 09:46:56;;;;;;;2.88;1.80;;;14.60;99.90;;;;;;5036245;28;20289;-71
2023/10/16 09:49:23;;;;;;;1.58;1.48;;;14.40;99.90;;;;;;5037015;28;20214;-71
2023/10/16 09:51:57;;;;;;;1.83;1.60;;;14.30;99.90;;;;;;5037655;28;20313;-72
2023/10/16 09:54:29;;;;;;;2.28;1.67;;;14.20;99.90;;;;;;5036790;28;20233;-71
2023/10/16 09:56:59;;;;;;;1.50;1.40;;;14.30;99.90;;;;;;5035852;28;20332;-74
2023/10/16 09:59:32;;;;;;;1.65;1.55;;;14.30;99.90;;;;;;5032255;28;20286;-71
2023/10/16 10:02:08;;;;;;;2.50;1.60;;;14.50;99.90;;;;;;5036310;28;20927;-72
2023/10/16 10:04:38;;;;;;;1.80;1.70;;;14.70;99.90;;;;;;5039775;28;20201;-70
2023/10/16 10:07:18;;;;;;;1.52;1.42;;;14.90;99.90;;;;;;5038751;28;20205;-72
2023/10/16 10:09:48;;;;;;;1.60;1.50;;;15.00;99.90;;;;;;5040816;28;20315;-71
2023/10/16 10:12:42;;;;;;;1.80;1.70;;;15.10;99.90;;;;;;5038513;28;20299;-71
2023/10/16 10:15:21;;;;;;;1.60;1.50;;;15.40;99.90;;;;;;5039839;28;20885;-71
2023/10/16 10:17:52;;;;;;;2.53;1.70;;;15.40;99.90;;;;;;5038869;28;20198;-71
2023/10/16 10:20:23;;;;;;;1.50;1.40;;;15.20;99.90;;;;;;5038443;28;20951;-70
2023/10/16 10:22:55;;;;;;;1.50;1.40;;;15.10;99.90;;;;;;5038554;28;20207;-71
2023/10/16 10:25:35;;;;;;;2.33;1.70;;;15.20;99.90;;;;;;5033680;28;20336;-71
2023/10/16 10:28:09;;;;;;;1.52;1.42;;;15.50;99.90;;;;;;5033896;28;20298;-71
2023/10/16 10:30:43;;;;;;;1.65;1.52;;;15.70;99.90;;;;;;5037802;28;20222;-71
2023/10/16 10:33:11;;;;;;;1.75;1.60;;;15.90;99.90;;;;;;5053651;28;20211;-71
2023/10/16 10:35:39;;;;;;;1.50;1.40;;;16.00;99.90;;;;;;5058255;28;20744;-70
2023/10/16 10:38:07;;;;;;;1.80;1.70;;;16.30;99.90;;;;;;5039270;28;20291;-72
2023/10/16 10:40:36;;;;;;;1.60;1.50;;;16.40;99.90;;;;;;5035618;28;20222;-69
2023/10/16 10:43:04;;;;;;;1.40;1.30;;;16.30;99.90;;;;;;5039318;28;20186;-70
2023/10/16 10:45:39;;;;;;;1.63;1.50;;;16.40;99.90;;;;;;5039411;28;20194;-70
2023/10/16 10:48:10;;;;;;;1.67;1.58;;;16.30;99.90;;;;;;5040673;28;20210;-71
2023/10/16 10:50:39;;;;;;;1.77;1.30;;;16.30;99.90;;;;;;5041892;28;20306;-71
2023/10/16 10:53:14;;;;;;;1.70;1.60;;;16.30;99.90;;;;;;5037188;28;20222;-69
2023/10/16 10:55:55;;;;;;;1.65;1.52;;;16.50;99.90;;;;;;5038115;28;20298;-70
2023/10/16 10:58:27;;;;;;;1.77;1.20;;;16.80;99.90;;;;;;5036938;28;20202;-72
2023/10/16 11:01:01;;;;;;;1.50;1.40;;;17.10;99.90;;;;;;5043697;28;20309;-71
2023/10/16 11:03:41;;;;;;;1.33;1.20;;;17.10;99.70;;;;;;5038285;28;20202;-71
2023/10/16 11:06:16;;;;;;;2.10;1.60;;;17.30;99.30;;;;;;5040195;28;20218;-71
2023/10/16 11:08:45;;;;;;;1.42;1.33;;;17.40;99.40;;;;;;5048646;28;20292;-73
2023/10/16 11:11:12;;;;;;;1.60;1.42;;;17.60;99.20;;;;;;5036319;28;20219;-71
2023/10/16 11:13:45;;;;;;;1.45;1.35;;;17.70;98.70;;;;;;5041053;28;20784;-72
2023/10/16 11:16:14;;;;;;;1.90;1.63;;;17.90;97.90;;;;;;5044825;28;20294;-72
2023/10/16 11:18:56;;;;;;;2.03;1.40;;;18.10;97.20;;;;;;5043292;28;20201;-72
2023/10/16 11:21:25;;;;;;;1.65;1.40;;;18.10;96.60;;;;;;5036196;28;20306;-72
2023/10/16 11:23:55;;;;;;;1.50;1.40;;;18.30;97.50;;;;;;5039495;28;20199;-71
2023/10/16 11:26:23;;;;;;;2.60;1.50;;;18.30;97.60;;;;;;5040790;28;20203;-71
2023/10/16 11:28:51;;;;;;;3.03;1.52;;;18.20;96.50;;;;;;5038019;28;20751;-72
2023/10/16 11:31:20;;;;;;;2.10;1.42;;;18.40;96.70;;;;;;5037244;28;20230;-70
2023/10/16 11:34:01;;;;;;;1.50;1.40;;;18.50;96.00;;;;;;5042137;28;20627;-72
2023/10/16 11:36:29;;;;;;;1.25;1.15;;;18.70;96.30;;;;;;5043874;28;20249;-71
2023/10/16 11:38:59;;;;;;;1.65;1.20;;;18.70;95.90;;;;;;5043155;28;20318;-72
2023/10/16 11:41:26;;;;;;;2.08;1.27;;;18.70;95.30;;;;;;5043764;28;20222;-71
2023/10/16 11:43:54;;;;;;;1.50;1.40;;;18.60;95.60;;;;;;5040504;28;20194;-71
2023/10/16 11:46:29;;;;;;;1.50;1.40;;;18.70;95.70;;;;;;5038036;28;20265;-71
2023/10/16 11:49:17;;;;;;;1.48;1.38;;;18.70;94.70;;;;;;5042414;28;20203;-70
2023/10/16 11:51:46;;;;;;;2.17;1.38;;;18.50;94.30;;;;;;5040272;28;20302;-70
2023/10/16 11:54:19;;;;;;;4.22;1.75;;;18.60;94.70;;;;;;5035570;28;20309;-72
2023/10/16 11:56:47;;;;;;;3.22;1.92;;;18.40;94.70;;;;;;5030264;28;20194;-74
2023/10/16 11:59:15;;;;;;;2.60;1.75;;;18.50;96.50;;;;;;5043142;28;20199;-73
2023/10/16 12:01:43;;;;;;;2.28;1.73;;;18.40;95.40;;;;;;5044222;28;20223;-76
2023/10/16 12:04:16;;;;;;;5.40;2.67;;;18.50;95.00;;;;;;5044939;28;20262;-74
2023/10/16 12:06:44;;;;;;;4.35;2.38;;;18.70;97.20;;;;;;5042536;28;20276;-73
2023/10/16 12:09:13;;;;;;;1.40;1.30;;;18.90;94.90;;;;;;5037314;28;20286;-72
2023/10/16 12:11:42;;;;;;;3.15;1.58;;;18.90;95.80;;;;;;5042500;28;20791;-75
2023/10/16 12:14:13;;;;;;;2.33;1.67;;;19.10;96.00;;;;;;5038045;28;20233;-74
2023/10/16 12:16:41;;;;;;;3.67;1.70;;;18.90;93.40;;;;;;5039845;28;20195;-74
2023/10/16 12:19:09;;;;;;;1.70;1.42;;;18.90;94.20;;;;;;5041768;28;20195;-75
2023/10/16 12:21:38;;;;;;;2.30;1.50;;;18.80;94.10;;;;;;5037262;28;20742;-75
2023/10/16 12:24:05;;;;;;;1.67;1.40;;;18.60;94.20;;;;;;5040223;28;20257;-74
2023/10/16 12:26:34;;;;;;;1.40;1.30;;;18.70;94.50;;;;;;5036947;28;20671;-75
2023/10/16 12:29:01;;;;;;;1.50;1.40;;;18.80;94.30;;;;;;5038190;28;20225;-77
2023/10/16 12:31:28;;;;;;;1.33;1.23;;;18.50;93.60;;;;;;5034605;28;20228;-73
2023/10/16 12:33:56;;;;;;;1.30;1.20;;;18.40;94.40;;;;;;5040487;28;20700;-75
2023/10/16 12:36:23;;;;;;;1.52;1.42;;;18.30;95.00;;;;;;5065689;28;20226;-76
2023/10/16 12:38:53;;;;;;;1.08;1.05;;;18.40;94.70;;;;;;5039346;28;20202;-76
2023/10/16 12:41:21;;;;;;;1.60;1.30;;;18.30;94.60;;;;;;5033433;28;20310;-74
2023/10/16 12:43:49;;;;;;;1.45;1.30;;;18.20;95.00;;;;;;5038221;28;20191;-75
2023/10/16 12:46:16;;;;;;;1.30;1.20;;;18.10;94.50;;;;;;5036919;28;20285;-74
2023/10/16 12:48:44;;;;;;;2.20;1.20;;;17.80;94.50;;;;;;5039569;28;20259;-74
2023/10/16 12:51:11;;;;;;;2.22;1.00;;;17.90;95.50;;;;;;5032412;28;20223;-73
2023/10/16 12:53:38;;;;;;;1.20;1.10;;;17.90;95.50;;;;;;5042716;28;20738;-74
2023/10/16 12:56:08;;;;;;;2.35;1.33;;;17.90;94.60;;;;;;5035784;28;20310;-78
2023/10/16 12:58:35;;;;;;;2.72;1.30;;;17.80;95.30;;;;;;5043402;28;20210;-75
2023/10/16 13:01:04;;;;;;;1.30;1.20;;;17.90;95.50;;;;;;5039751;28;20215;-75
2023/10/16 13:03:33;;;;;;;1.52;1.40;;;17.80;95.10;;;;;;5035832;28;20256;-75
2023/10/16 13:06:05;;;;;;;1.63;1.23;;;17.60;95.80;;;;;;5039098;28;20210;-74
2023/10/16 13:08:33;;;;;;;1.35;1.25;;;17.50;96.10;;;;;;5040180;28;20205;-74
2023/10/16 13:11:00;;;;;;;1.40;1.30;;;17.40;96.60;;;;;;5038692;28;20358;-74
2023/10/16 13:13:29;;;;;;;3.25;1.27;;;17.40;96.80;;;;;;5038767;28;20251;-74
2023/10/16 13:15:57;;;;;;;1.63;1.52;;;17.40;97.80;;;;;;5039581;28;20191;-74
2023/10/16 13:18:31;;;;;;;1.30;1.20;;;17.50;96.70;;;;;;5037592;28;20202;-75
2023/10/16 13:21:04;;;;;;;1.75;1.30;;;17.40;97.30;;;;;;5034593;28;20226;-74
2023/10/16 13:23:34;;;;;;;1.08;1.08;;;17.30;97.00;;;;;;5039783;28;20191;-73
2023/10/16 13:26:02;;;;;;;2.17;1.88;;;17.30;97.60;;;;;;5037678;28;20207;-74
2023/10/16 13:28:31;;;;;;;1.27;1.23;;;17.20;97.60;;;;;;5036793;28;20256;-73
2023/10/16 13:30:59;;;;;;;1.40;1.27;;;17.30;97.80;;;;;;5040546;28;20242;-75
2023/10/16 13:33:28;;;;;;;2.35;2.10;;;17.30;97.80;;;;;;5039753;28;20304;-73
2023/10/16 13:35:55;;;;;;;2.42;1.60;;;17.20;98.20;;;;;;5033433;28;20203;-73
2023/10/16 13:38:25;;;;;;;2.03;1.20;;;17.30;98.10;;;;;;5028304;28;20232;-73
2023/10/16 13:40:52;;;;;;;1.77;1.08;;;17.20;98.00;;;;;;5034571;28;20794;-73
2023/10/16 13:43:20;;;;;;;1.30;1.20;;;17.20;98.10;;;;;;5032419;28;20198;-75
2023/10/16 13:45:51;;;;;;;1.40;1.10;;;17.10;98.30;;;;;;5035591;28;20751;-74
2023/10/16 13:48:21;;;;;;;1.92;1.00;;;17.00;98.40;;;;;;5038848;28;20202;-73
2023/10/16 13:50:50;;;;;;;1.67;1.23;;;16.90;98.70;;;;;;5051061;28;20492;-74
2023/10/16 13:53:19;;;;;;;1.85;1.30;;;16.80;99.00;;;;;;5060124;28;20209;-73
2023/10/16 13:55:54;;;;;;;2.03;1.30;;;16.60;99.00;;;;;;5057166;28;20289;-73
2023/10/16 13:58:21;;;;;;;2.28;1.63;;;16.50;99.10;;;;;;5052729;28;20274;-72
2023/10/16 14:00:51;;;;;;;1.45;1.35;;;16.40;99.20;;;;;;5055976;28;20300;-75
2023/10/16 14:03:18;;;;;;;1.20;1.08;;;16.30;99.00;;;;;;5058763;28;20208;-73
2023/10/16 14:05:47;;;;;;;2.03;1.20;;;16.20;99.10;;;;;;5058059;28;20213;-73
2023/10/16 14:08:17;;;;;;;1.83;1.10;;;16.10;99.40;;;;;;5054378;28;20293;-73
2023/10/16 14:10:49;;;;;;;1.33;1.30;;;16.10;99.60;;;;;;5055749;28;20225;-73
2023/10/16 14:13:21;;;;;;;1.33;1.23;;;16.10;99.80;;;;;;5055523;28;20218;-73
2023/10/16 14:15:50;;;;;;;1.30;1.20;;;16.10;99.60;;;;;;5054598;28;20202;-74
2023/10/16 14:18:21;;;;;;;1.50;1.40;;;16.20;99.60;;;;;;5059492;28;20267;-74
2023/10/16 14:20:49;;;;;;;1.65;1.55;;;16.30;99.60;;;;;;5054605;28;20305;-74
2023/10/16 14:23:17;;;;;;;1.75;1.45;;;16.40;99.70;;;;;;5053166;28;20197;-72
2023/10/16 14:25:47;;;;;;;12.52;1.65;;;16.50;99.30;;;;;;5055376;28;20202;-73
2023/10/16 14:28:25;;;;;;;2.05;1.35;;;16.40;98.90;;;;;;5057598;28;20949;-73
2023/10/16 14:30:56;;;;;;;1.33;1.23;;;16.30;98.80;;;;;;5057167;28;20222;-72
2023/10/16 14:33:28;;;;;;;1.67;1.30;;;16.30;98.70;;;;;;5055124;28;20202;-73
2023/10/16 14:35:56;;;;;;;2.35;1.20;;;16.30;99.10;;;;;;5065517;28;20213;-73
2023/10/16 14:38:23;;;;;;;1.25;1.15;;;16.30;99.00;;;;;;5075383;28;20861;-73